KMOD/MOD METAR and TAF weather

Enter ICAO airport designator
Station Type Date Time Source
KMOD METAR 2021/04/13 07:53 UTC NOAA

KMOD 130753Z AUTO 00000KT 10SM CLR 13/03 A2979 RMK AO2 SLP086 T01330028 402670089


Station Type Date Time Source
KMOD Decoded METAR 2021/04/13 07:53 UTC NOAA

MODESTO CITY CO SHAM FLD, CA, United States (KMOD) 37-37N 120-57W 29M
Apr 13, 2021 - 03:53 AM EDT / 2021.04.13 0753 UTC
Wind: Calm:0
Visibility: 10 mile(s):0
Sky conditions: clear
Temperature: 55.9 F (13.3 C)
Dew Point: 37.0 F (2.8 C)
Relative Humidity: 48%
Pressure (altimeter): 29.79 in. Hg (1008 hPa)
ob: KMOD 130753Z AUTO 00000KT 10SM CLR 13/03 A2979 RMK AO2 SLP086 T01330028 402670089
cycle: 8

Station Type Date Time Source
KMOD TAF 2021/04/13 06:25 UTC NOAA

TAF KMOD 130520Z 1306/1406 32009KT P6SM SCT250

Example: see airport list